• Join FlightAware (Why Join?)
  • Login
  • US Flag 
Gobble Gobble! 
05:36AM EST


 

Airport Tracker/Info


-or-


 

Live Flight TrackerFlight Track Log ✈ ASQ5072 ✈ 22-May-2013 ✈ KAGS - KATL

Flight Track Log - Related Links

Times and Time Zones

All times are in EDT time to prevent confusion due to time zone crossing. See the ASQ5072 flight status page for this flight to view local times or setup timezone preferences in your user account.

Time Position Orientation Groundspeed Altitude Reporting Facility
EDT Latitude Longitude Course Direction KTS MPH feet Rate Location/Type
06:58AM 33.4872 -81.9989 259° West 222 255 4,300  Level Atlanta Center
06:59AM 33.4986 -82.0633 282° West 234 269 6,500 2,040 Climbing Atlanta Center
07:00AM 33.4772 -82.1536 254° West 266 306 8,400 1,980 Climbing Atlanta Center
07:01AM 33.4536 -82.2486 253° West 283 326 10,500 1,500 Climbing Atlanta Center
07:02AM 33.3205 -82.4010 265° West  Level FlightAware Approximate
07:02AM 33.4300 -82.3511 255° West 324 373 11,500  Level Atlanta Center
07:03AM 33.3098 -82.4912 259° West  Level FlightAware Approximate
07:03AM 33.4083 -82.4611 257° West 350 403 13,300  Level Atlanta Center
07:04AM 33.3744 -82.5786 251° West 365 420 15,200 1,800 Climbing Atlanta Center
07:05AM 33.3508 -82.7083 258° West 365 420 17,000 1,380 Climbing Atlanta Center
07:06AM 33.3417 -82.8228 265° West 358 412 18,000 480 Climbing Atlanta Center
07:07AM 33.3156 -82.9575 257° West 381 438 18,000  Level Atlanta Center
07:08AM 33.3083 -83.0819 266° West 394 453 18,000 -240 Level Atlanta Center
07:09AM 33.2925 -83.2161 262° West 408 470 17,600 -900 Descending Atlanta Center
07:10AM 33.2747 -83.3481 261° West 408 470 16,300 -1,260 Descending Atlanta Center
07:11AM 33.2586 -83.4725 261° West 398 458 15,100 -1,200 Descending Atlanta Center
07:12AM 33.2444 -83.5917 262° West 382 440 13,900 -1,200 Descending Atlanta Center
07:12AM 33.2333 -83.6667 260° West 344 396 13,200 -1,080 Descending Atlanta TRACON
07:13AM 33.2333 -83.7667 270° West 305 351 12,100 -780 Descending Atlanta TRACON
07:14AM 33.2500 -83.8667 281° West 309 356 11,600 -720 Descending Atlanta TRACON
07:15AM 33.2639 -83.8772 328° Northwest 291 335 11,200 -1,500 Descending Atlanta Center
07:16AM 33.3119 -83.9542 307° West 291 335 9,700 -1,500 Descending Atlanta Center
07:17AM 33.3622 -84.0314 308° West 291 335 8,200 -1,500 Descending Atlanta Center
07:18AM 33.4228 -84.0936 319° Northwest 286 329 6,700 -1,620 Descending Atlanta Center
07:19AM 33.4958 -84.1433 330° Northwest 281 323 5,000 -1,800 Descending Atlanta Center
07:20AM 33.5625 -84.1833 333° Northwest 270 311 3,200 -960 Descending Atlanta Center
07:21AM 33.6000 -84.2408 308° West 237 273 3,100 -240 Descending Atlanta Center
07:22AM 33.6333 -84.3167 298° West 165 190 2,600 -540 Descending Atlanta TRACON
07:23AM 33.6333 -84.3833 270° West 132 152 1,700 -840 Descending Atlanta TRACON
07:25AM 33.6367 -84.4279 231° Southwest  Level Estimated
07:32AM 33.6367 -84.4279 64° Northeast  Level Estimated